Terminal Aerodrome Forecast
Issued by NWS

Home | Current Version | Previous Version | Text Only | Print | Product List | Glossary On
Versions: 1 2 3 4 5 6 7 8 9 10 11 12 13 14 15 16
000
FTUS41 KBTV 012059 AAB
TAFRUT
TAF AMD
KRUT 012059Z 0121/0218 26008KT P6SM VCSH SCT035 BKN040
      TEMPO 0121/0122 26007G18KT 3SM SHRA BKN030 OVC050
     FM020000 22006KT P6SM SCT040
     FM020400 24004KT P6SM BKN030
     FM021000 VRB05KT P6SM SCT035
     FM021400 28006KT P6SM FEW110
      AMD LTD TO CLD VIS AND WIND=

USA.gov is the U.S. government's official web portal to all federal, state and local government web resources and services.